»·PEaware :: DAL213 KLAX-KSFO

DAL213 :: KLAX-KSFO

FLIGHT INFORMATION

Flight Status: Arrived
Operator:
Delta Air Lines
More flights by this operator :: More flights under this callsign
Pilot: Nicolas L. (9332)
Aircraft: BOEING 737-800
(B738)
More flights by this aircraft type
Origin: KLAX Los Angeles Intl
United States
Destination: KSFO San Francisco Intl
United States
More flights between these airports :: More routes between these airports
Route: SUMMR1 STOKD SERFR SERFR3
File this flight plan on PilotEdge
Remarks: Live Streaming on Twitch "DAL213" and YT
Altitude:
(Current/Filed)
34,000ft
Speed:
(Current/Filed)
400kts
Departed: 29-Sep-18 02:52 PM
Arrived: 29-Sep-18 03:44 PM
Distance/Time
Traveled:
293nm/0:52
Distance/Time
To Go:
Arrived

Flight Plot

Page will automatically refresh every two minutes.

Flight plan parsing failed; only flown route is shown


Map Options




Map Legend


Flown Route
Filed Route
Departure Airport
Arrival Airport
Navaid (VOR, NDB)
Fix

Horizontal Profiles

Position Reports

Time Latitude Longitude Heading Altitude Ground
Speed
29-Sep-18 14:38 33.943191 -118.429943 84 135ft 0kts
29-Sep-18 14:39 33.943191 -118.429943 84 135ft 0kts
29-Sep-18 14:40 33.943191 -118.429943 84 135ft 0kts
29-Sep-18 14:41 33.943191 -118.429943 84 135ft 0kts
29-Sep-18 14:42 33.943191 -118.429943 84 135ft 0kts
29-Sep-18 14:43 33.946632 -118.404784 356 135ft 0kts
29-Sep-18 14:44 33.946570 -118.404965 82 135ft 0kts
29-Sep-18 14:45 33.946570 -118.404965 82 135ft 0kts
29-Sep-18 14:46 33.946570 -118.404965 82 135ft 0kts
29-Sep-18 14:47 33.946570 -118.404965 82 135ft 0kts
29-Sep-18 14:48 33.946570 -118.404965 82 135ft 0kts
29-Sep-18 14:49 33.946358 -118.405527 42 135ft 2kts
29-Sep-18 14:50 33.946026 -118.405735 13 135ft 0kts
29-Sep-18 14:51 33.946027 -118.405734 13 135ft 0kts
29-Sep-18 14:52 33.947417 -118.405961 352 135ft 14kts
29-Sep-18 14:53 33.948889 -118.402795 59 135ft 11kts
29-Sep-18 14:54 33.949985 -118.403668 261 135ft 49kts
29-Sep-18 14:55 33.945840 -118.445462 263 981ft 158kts
29-Sep-18 14:56 33.941962 -118.505639 267 2817ft 211kts
29-Sep-18 14:57 33.935959 -118.586069 263 5070ft 268kts
29-Sep-18 14:58 33.929071 -118.677487 262 8306ft 278kts
29-Sep-18 14:59 33.921631 -118.772755 261 10766ft 308kts
29-Sep-18 15:00 33.918191 -118.883684 268 12854ft 344kts
29-Sep-18 15:01 33.923241 -119.001056 277 15560ft 358kts
29-Sep-18 15:02 33.971802 -119.111258 295 18049ft 385kts
29-Sep-18 15:03 34.041806 -119.212055 316 20522ft 411kts
29-Sep-18 15:04 34.136700 -119.294885 318 22549ft 428kts
29-Sep-18 15:05 34.234915 -119.379964 318 24416ft 441kts
29-Sep-18 15:06 34.336058 -119.467422 317 26127ft 451kts
29-Sep-18 15:07 34.434592 -119.562208 308 27533ft 452kts
29-Sep-18 15:08 34.523890 -119.671126 307 28885ft 457kts
29-Sep-18 15:09 34.613655 -119.781867 307 29957ft 463kts
29-Sep-18 15:10 34.704622 -119.894499 306 30810ft 469kts
29-Sep-18 15:11 34.795691 -120.007586 306 31823ft 466kts
29-Sep-18 15:12 34.885872 -120.119957 305 32897ft 462kts
29-Sep-18 15:13 34.975263 -120.231735 305 33932ft 457kts
29-Sep-18 15:14 35.063943 -120.342979 305 33981ft 456kts
29-Sep-18 15:15 35.156192 -120.449896 308 33984ft 457kts
29-Sep-18 15:16 35.249840 -120.554540 307 33985ft 456kts
29-Sep-18 15:17 35.343057 -120.659480 307 33987ft 456kts
29-Sep-18 15:18 35.436479 -120.764989 307 33978ft 455kts
29-Sep-18 15:19 35.533499 -120.865747 313 33974ft 462kts
29-Sep-18 15:20 35.636969 -120.960785 312 33972ft 464kts
29-Sep-18 15:21 35.739695 -121.056346 312 33969ft 463kts
29-Sep-18 15:22 35.842277 -121.152235 312 33966ft 463kts
29-Sep-18 15:23 35.945107 -121.248643 312 32985ft 460kts
29-Sep-18 15:24 36.048301 -121.345781 312 30672ft 473kts
29-Sep-18 15:25 36.159727 -121.436285 319 28302ft 485kts
29-Sep-18 15:26 36.273370 -121.524689 319 25909ft 472kts
29-Sep-18 15:27 36.381636 -121.609620 319 23629ft 449kts
29-Sep-18 15:28 36.484658 -121.690717 319 21469ft 430kts
29-Sep-18 15:29 36.581771 -121.767451 319 19416ft 406kts
29-Sep-18 15:30 36.675366 -121.841631 320 17437ft 392kts
29-Sep-18 15:31 36.771490 -121.901195 341 15533ft 388kts
29-Sep-18 15:32 36.874682 -121.931005 342 13642ft 372kts
29-Sep-18 15:33 36.972479 -121.960522 338 11853ft 352kts
29-Sep-18 15:34 37.063349 -121.996390 339 10696ft 323kts
29-Sep-18 15:35 37.143615 -122.027893 339 10173ft 291kts
29-Sep-18 15:36 37.220966 -122.058217 340 8885ft 286kts
29-Sep-18 15:37 37.294887 -122.087259 340 7484ft 273kts
29-Sep-18 15:38 37.366140 -122.115132 339 6141ft 263kts
29-Sep-18 15:39 37.435000 -122.138807 342 4971ft 257kts
29-Sep-18 15:40 37.502716 -122.166537 338 3896ft 249kts
29-Sep-18 15:41 37.555151 -122.209431 290 2910ft 216kts
29-Sep-18 15:42 37.569922 -122.273019 260 1759ft 165kts
29-Sep-18 15:43 37.568446 -122.324700 281 985ft 137kts
29-Sep-18 15:44 37.582068 -122.370397 286 606ft 141kts
29-Sep-18 15:45 37.613715 -122.376151 27 23ft 135kts
29-Sep-18 15:46 37.622018 -122.373648 297 22ft 16kts
29-Sep-18 15:47 37.622323 -122.375538 228 22ft 9kts
29-Sep-18 15:48 37.619185 -122.379781 210 22ft 12kts
29-Sep-18 15:49 37.618288 -122.380775 235 22ft 0kts
29-Sep-18 15:50 37.618288 -122.380775 235 22ft 0kts
29-Sep-18 15:51 37.618288 -122.380775 235 22ft 0kts
29-Sep-18 15:52 37.618288 -122.380775 235 22ft 0kts
29-Sep-18 15:53 37.618288 -122.380775 235 22ft 0kts

Navigation Log

Ident Type
Flight plan parsing failed, navigation log unavailable